Time;durP1;ratioP1;P1;durP2;ratioP2;P2;SDS_P1;SDS_P2;PMS_P1;PMS_P2;Temp;Humidity;BMP_temperature;BMP_pressure;BME280_temperature;BME280_humidity;BME280_pressure;Samples;Min_cycle;Max_cycle;Signal;HPM_P1;HPM_P2
2023/08/06 00:02:23;;;;;;;2.55;1.88;;;15.70;99.90;;;;;;5050330;28;20119;-70
2023/08/06 00:04:49;;;;;;;1.90;1.80;;;15.80;99.90;;;;;;5051984;28;20024;-70
2023/08/06 00:07:15;;;;;;;3.60;2.22;;;15.70;99.90;;;;;;5051484;28;20047;-71
2023/08/06 00:09:40;;;;;;;2.40;1.77;;;15.70;99.90;;;;;;5052191;28;20025;-70
2023/08/06 00:12:06;;;;;;;1.40;1.30;;;15.70;99.90;;;;;;5052030;28;20112;-68
2023/08/06 00:14:32;;;;;;;3.80;2.60;;;15.70;99.90;;;;;;5050928;28;20033;-70
2023/08/06 00:16:57;;;;;;;5.88;3.05;;;15.70;99.90;;;;;;5051729;28;20102;-70
2023/08/06 00:19:23;;;;;;;4.72;1.75;;;15.70;99.90;;;;;;5052147;28;20032;-69
2023/08/06 00:21:48;;;;;;;1.73;1.52;;;15.70;99.90;;;;;;5051901;28;20037;-69
2023/08/06 00:24:14;;;;;;;2.08;1.73;;;15.70;99.90;;;;;;5051915;28;20028;-69
2023/08/06 00:26:40;;;;;;;1.85;1.75;;;15.60;99.90;;;;;;5052103;28;20074;-70
2023/08/06 00:29:05;;;;;;;2.38;2.17;;;15.60;99.90;;;;;;5052028;28;20453;-69
2023/08/06 00:31:31;;;;;;;1.63;1.00;;;15.60;99.90;;;;;;5051340;28;20393;-70
2023/08/06 00:33:56;;;;;;;1.60;1.50;;;15.60;99.90;;;;;;5051717;28;20223;-69
2023/08/06 00:36:22;;;;;;;1.95;1.42;;;15.60;99.90;;;;;;5050790;28;20045;-71
2023/08/06 00:38:47;;;;;;;3.00;1.17;;;15.60;99.90;;;;;;5051657;28;20028;-70
2023/08/06 00:41:13;;;;;;;4.03;1.70;;;15.60;99.90;;;;;;5050570;28;20031;-70
2023/08/06 00:43:39;;;;;;;2.78;2.30;;;15.60;99.90;;;;;;5051612;28;20033;-70
2023/08/06 00:46:05;;;;;;;1.02;1.02;;;15.60;99.90;;;;;;5050251;28;20068;-70
2023/08/06 00:48:31;;;;;;;5.35;3.03;;;15.60;99.90;;;;;;5051236;28;20029;-69
2023/08/06 00:50:56;;;;;;;2.15;1.90;;;15.60;99.90;;;;;;5051842;28;20029;-69
2023/08/06 00:53:22;;;;;;;1.75;1.45;;;15.70;99.90;;;;;;5051741;28;20491;-69
2023/08/06 00:55:48;;;;;;;2.10;1.75;;;15.70;99.90;;;;;;5051592;28;20029;-70
2023/08/06 00:58:15;;;;;;;2.60;2.38;;;15.60;99.90;;;;;;5051917;28;20373;-69
2023/08/06 01:00:41;;;;;;;4.70;2.17;;;15.70;99.90;;;;;;5051688;28;20554;-70
2023/08/06 01:03:07;;;;;;;1.42;1.35;;;15.70;99.90;;;;;;5051654;28;20037;-70
2023/08/06 01:05:33;;;;;;;4.18;2.42;;;15.60;99.90;;;;;;5050703;28;20033;-70
2023/08/06 01:08:28;;;;;;;1.15;1.05;;;15.60;99.90;;;;;;5051195;28;20453;-71
2023/08/06 01:11:12;;;;;;;1.55;1.10;;;15.60;99.90;;;;;;5051755;28;20029;-70
2023/08/06 01:13:43;;;;;;;1.35;1.25;;;15.60;99.90;;;;;;5051796;28;20068;-69
2023/08/06 01:16:09;;;;;;;2.57;1.17;;;15.70;99.90;;;;;;5051714;28;20107;-71
2023/08/06 01:18:37;;;;;;;1.23;1.10;;;15.60;99.90;;;;;;5053265;28;20142;-71
2023/08/06 01:21:02;;;;;;;3.63;2.15;;;15.60;99.90;;;;;;5054968;28;20040;-71
2023/08/06 01:23:28;;;;;;;1.67;1.58;;;15.60;99.90;;;;;;5055210;28;20028;-70
2023/08/06 01:26:10;;;;;;;2.70;2.45;;;15.60;99.90;;;;;;5054959;28;20150;-70
2023/08/06 01:28:56;;;;;;;4.47;2.40;;;15.60;99.90;;;;;;5055362;28;20018;-70
2023/08/06 01:31:31;;;;;;;2.05;1.30;;;15.60;99.90;;;;;;5053957;28;20064;-70
2023/08/06 01:33:59;;;;;;;2.03;1.92;;;15.60;99.90;;;;;;5061025;28;20037;-69
2023/08/06 01:36:25;;;;;;;3.53;1.83;;;15.60;99.90;;;;;;5065624;28;20048;-70
2023/08/06 01:38:55;;;;;;;2.42;1.92;;;15.60;99.90;;;;;;5067451;28;20032;-71
2023/08/06 01:41:20;;;;;;;2.45;2.03;;;15.60;99.90;;;;;;5058083;28;20029;-71
2023/08/06 01:43:46;;;;;;;3.22;2.25;;;15.60;99.90;;;;;;5070503;28;20389;-70
2023/08/06 01:46:12;;;;;;;2.05;1.55;;;15.60;99.90;;;;;;5061887;28;20023;-71
2023/08/06 01:48:37;;;;;;;1.60;1.50;;;15.60;99.90;;;;;;5063550;28;20048;-71
2023/08/06 01:51:06;;;;;;;4.30;1.58;;;15.60;99.90;;;;;;5068903;28;20029;-71
2023/08/06 01:53:33;;;;;;;3.45;1.45;;;15.70;99.90;;;;;;5057559;28;20064;-70
2023/08/06 01:55:58;;;;;;;3.83;1.42;;;15.70;99.90;;;;;;5068772;28;20495;-70
2023/08/06 01:58:24;;;;;;;2.85;2.00;;;15.70;99.90;;;;;;5063368;28;20033;-70
2023/08/06 02:00:49;;;;;;;1.98;1.63;;;15.70;99.90;;;;;;5061738;28;20036;-70
2023/08/06 02:03:15;;;;;;;2.17;1.58;;;15.70;99.90;;;;;;5070050;28;20020;-71
2023/08/06 02:05:41;;;;;;;1.25;1.15;;;15.70;99.90;;;;;;5057603;28;20443;-71
2023/08/06 02:08:06;;;;;;;3.85;1.63;;;15.70;99.90;;;;;;5067244;28;20036;-70
2023/08/06 02:10:32;;;;;;;1.52;1.33;;;15.60;99.90;;;;;;5064470;28;20100;-71
2023/08/06 02:12:57;;;;;;;2.40;2.00;;;15.60;99.90;;;;;;5060493;28;20033;-70
2023/08/06 02:15:23;;;;;;;1.13;1.02;;;15.60;99.90;;;;;;5070558;28;20048;-70
2023/08/06 02:17:48;;;;;;;2.47;2.25;;;15.60;99.90;;;;;;5057841;28;20056;-71
2023/08/06 02:20:14;;;;;;;1.92;1.70;;;15.60;99.90;;;;;;5066026;28;20056;-70
2023/08/06 02:22:40;;;;;;;2.15;1.52;;;15.60;99.90;;;;;;5065267;28;20395;-73
2023/08/06 02:25:05;;;;;;;2.92;2.38;;;15.60;99.90;;;;;;5058763;28;20380;-74
2023/08/06 02:27:31;;;;;;;3.00;2.65;;;15.60;99.90;;;;;;5070094;28;20035;-73
2023/08/06 02:29:56;;;;;;;2.38;1.90;;;15.60;99.90;;;;;;5058188;28;20361;-73
2023/08/06 02:32:22;;;;;;;5.07;2.38;;;15.50;99.90;;;;;;5064381;28;20529;-72
2023/08/06 02:34:47;;;;;;;2.50;1.42;;;15.50;99.90;;;;;;5066041;28;20028;-73
2023/08/06 02:37:13;;;;;;;3.15;2.45;;;15.50;99.90;;;;;;5057664;28;20052;-72
2023/08/06 02:39:41;;;;;;;1.20;1.10;;;15.50;99.90;;;;;;5069987;28;20032;-72
2023/08/06 02:42:07;;;;;;;1.85;1.73;;;15.50;99.90;;;;;;5054834;28;20064;-72
2023/08/06 02:44:33;;;;;;;2.45;1.83;;;15.40;99.90;;;;;;5064569;28;20491;-71
2023/08/06 02:46:59;;;;;;;1.98;1.70;;;15.40;99.90;;;;;;5058959;28;20389;-71
2023/08/06 02:49:25;;;;;;;2.60;2.35;;;15.40;99.90;;;;;;5070115;28;20028;-71
2023/08/06 02:51:50;;;;;;;2.33;2.13;;;15.40;99.90;;;;;;5057714;28;20036;-71
2023/08/06 02:54:16;;;;;;;3.60;2.05;;;15.40;99.90;;;;;;5065289;28;20033;-71
2023/08/06 02:56:45;;;;;;;4.22;2.08;;;15.30;99.90;;;;;;5064853;28;20036;-71
2023/08/06 02:59:11;;;;;;;1.77;1.67;;;15.30;99.90;;;;;;5055943;28;20025;-71
2023/08/06 03:01:37;;;;;;;0.90;0.75;;;15.30;99.90;;;;;;5069312;28;20055;-71
2023/08/06 03:04:03;;;;;;;1.60;1.50;;;15.10;99.90;;;;;;5058997;28;20028;-71
2023/08/06 03:06:28;;;;;;;0.90;0.60;;;15.10;99.90;;;;;;5063246;28;20469;-71
2023/08/06 03:08:54;;;;;;;0.55;0.55;;;14.90;99.90;;;;;;5066006;28;20028;-71
2023/08/06 03:11:20;;;;;;;1.65;1.33;;;14.80;99.90;;;;;;5056602;28;20029;-71
2023/08/06 03:13:46;;;;;;;3.10;0.60;;;14.70;99.90;;;;;;5068802;28;20416;-70
2023/08/06 03:16:12;;;;;;;0.47;0.47;;;14.60;99.90;;;;;;5060034;28;20103;-70
2023/08/06 03:18:37;;;;;;;0.93;0.50;;;14.50;99.90;;;;;;5061902;28;20113;-71
2023/08/06 03:21:03;;;;;;;1.45;0.95;;;14.50;99.90;;;;;;5067419;28;20423;-70
2023/08/06 03:23:29;;;;;;;1.13;0.80;;;14.40;99.90;;;;;;5056160;28;20056;-69
2023/08/06 03:25:54;;;;;;;19.75;2.05;;;14.40;99.90;;;;;;5067704;28;20355;-69
2023/08/06 03:28:22;;;;;;;1.45;0.60;;;14.40;99.90;;;;;;5061220;28;20068;-71
2023/08/06 03:30:48;;;;;;;0.65;0.47;;;14.40;99.90;;;;;;5060197;28;20040;-69
2023/08/06 03:33:13;;;;;;;1.60;1.02;;;14.40;99.90;;;;;;5055468;28;20117;-70
2023/08/06 03:35:39;;;;;;;1.55;0.98;;;14.40;99.90;;;;;;5060991;28;20089;-71
2023/08/06 03:38:05;;;;;;;0.88;0.75;;;14.40;99.90;;;;;;5065996;28;20025;-74
2023/08/06 03:40:30;;;;;;;2.63;1.05;;;14.40;99.90;;;;;;5062439;28;20024;-75
2023/08/06 03:42:57;;;;;;;1.65;0.82;;;14.40;99.90;;;;;;5059078;28;20040;-73
2023/08/06 03:45:22;;;;;;;2.20;1.48;;;14.40;99.90;;;;;;5068768;28;20025;-73
2023/08/06 03:47:48;;;;;;;2.45;1.55;;;14.40;99.90;;;;;;5055118;28;20024;-75
2023/08/06 03:50:13;;;;;;;1.17;0.55;;;14.40;99.90;;;;;;5064646;28;20024;-73
2023/08/06 03:52:39;;;;;;;2.28;0.80;;;14.50;99.90;;;;;;5063367;28;20047;-73
2023/08/06 03:55:05;;;;;;;1.17;0.85;;;14.50;99.90;;;;;;5057375;28;20021;-75
2023/08/06 03:57:31;;;;;;;0.80;0.55;;;14.50;99.90;;;;;;5068711;28;20031;-74
2023/08/06 03:59:56;;;;;;;0.38;0.38;;;14.60;99.90;;;;;;5057075;28;20479;-73
2023/08/06 04:02:22;;;;;;;0.80;0.80;;;14.60;99.90;;;;;;5063493;28;20483;-74
2023/08/06 04:04:48;;;;;;;0.20;0.20;;;14.60;99.90;;;;;;5064871;28;20029;-74
2023/08/06 04:07:13;;;;;;;0.17;0.17;;;14.60;99.90;;;;;;5056510;28;20042;-73
2023/08/06 04:09:57;;;;;;;0.57;0.50;;;14.60;99.90;;;;;;5069083;28;20154;-74
2023/08/06 04:12:22;;;;;;;1.55;1.13;;;14.60;99.90;;;;;;5061071;28;20511;-73
2023/08/06 04:14:48;;;;;;;0.70;0.70;;;14.60;99.90;;;;;;5060178;28;20060;-74
2023/08/06 04:17:13;;;;;;;1.20;0.80;;;14.60;99.90;;;;;;5068417;28;20431;-74
2023/08/06 04:19:39;;;;;;;0.40;0.40;;;14.60;99.90;;;;;;5054673;28;20020;-74
2023/08/06 04:22:04;;;;;;;1.10;1.10;;;14.60;99.90;;;;;;5058723;28;20108;-74
2023/08/06 04:24:30;;;;;;;0.65;0.52;;;14.60;99.90;;;;;;5062131;28;20404;-73
2023/08/06 04:26:55;;;;;;;0.73;0.50;;;14.60;99.90;;;;;;5065506;28;20784;-73
2023/08/06 04:29:21;;;;;;;0.57;0.45;;;14.60;99.90;;;;;;5055644;28;20528;-73
2023/08/06 04:31:46;;;;;;;1.75;0.80;;;14.60;99.90;;;;;;5068327;28;20132;-73
2023/08/06 04:34:12;;;;;;;1.05;0.98;;;14.60;99.90;;;;;;5059819;28;20472;-73
2023/08/06 04:36:38;;;;;;;0.20;0.20;;;14.60;99.90;;;;;;5061033;28;20477;-72
2023/08/06 04:39:04;;;;;;;2.78;1.08;;;14.50;99.90;;;;;;5067030;28;20031;-73
2023/08/06 04:41:29;;;;;;;0.55;0.55;;;14.50;99.90;;;;;;5055517;28;20021;-72
2023/08/06 04:43:56;;;;;;;0.25;0.25;;;14.50;99.90;;;;;;5067014;28;20035;-72
2023/08/06 04:46:22;;;;;;;0.30;0.30;;;14.50;99.90;;;;;;5061024;28;20028;-74
2023/08/06 04:48:47;;;;;;;1.55;0.45;;;14.50;99.90;;;;;;5059526;28;20408;-72
2023/08/06 04:51:14;;;;;;;0.68;0.68;;;14.50;99.90;;;;;;5067559;28;20036;-74
2023/08/06 04:53:40;;;;;;;0.60;0.60;;;14.50;99.90;;;;;;5056867;28;20043;-72
2023/08/06 04:56:05;;;;;;;0.25;0.25;;;14.50;99.90;;;;;;5069348;28;20025;-72
2023/08/06 04:58:31;;;;;;;0.93;0.68;;;14.50;99.90;;;;;;5065556;28;20111;-71
2023/08/06 05:00:56;;;;;;;2.00;1.13;;;14.50;99.90;;;;;;5062306;28;20033;-70
2023/08/06 05:03:22;;;;;;;0.45;0.35;;;14.60;99.90;;;;;;5071731;28;20396;-71
2023/08/06 05:05:48;;;;;;;1.67;1.15;;;14.60;99.90;;;;;;5059563;28;20056;-71
2023/08/06 05:08:18;;;;;;;1.40;0.55;;;14.60;99.90;;;;;;5067949;28;20452;-71
2023/08/06 05:10:46;;;;;;;1.88;1.05;;;14.60;99.90;;;;;;5067105;28;20107;-71
2023/08/06 05:13:12;;;;;;;1.20;1.10;;;14.70;99.90;;;;;;5059376;28;20090;-71
2023/08/06 05:15:39;;;;;;;1.10;0.73;;;14.70;99.90;;;;;;5071846;28;20025;-71
2023/08/06 05:18:05;;;;;;;1.67;0.98;;;14.70;99.90;;;;;;5062021;28;20027;-71
2023/08/06 05:20:30;;;;;;;1.02;0.93;;;14.80;99.90;;;;;;5064900;28;20029;-71
2023/08/06 05:22:56;;;;;;;4.38;1.20;;;14.80;99.90;;;;;;5067478;28;20211;-71
2023/08/06 05:25:21;;;;;;;0.70;0.63;;;14.90;99.90;;;;;;5058035;28;20029;-71
2023/08/06 05:27:47;;;;;;;2.40;1.23;;;14.90;99.90;;;;;;5067973;28;20032;-73
2023/08/06 05:30:13;;;;;;;1.25;1.13;;;14.90;99.90;;;;;;5056896;28;20033;-71
2023/08/06 05:32:38;;;;;;;5.53;1.58;;;15.00;99.90;;;;;;5066850;28;20067;-71
2023/08/06 05:35:04;;;;;;;2.17;1.60;;;15.00;99.90;;;;;;5060079;28;20047;-71
2023/08/06 05:37:29;;;;;;;0.68;0.63;;;15.00;99.90;;;;;;5071555;28;20499;-71
2023/08/06 05:39:55;;;;;;;2.28;0.77;;;15.00;99.90;;;;;;5060067;28;20025;-72
2023/08/06 05:42:21;;;;;;;1.45;1.00;;;15.00;99.90;;;;;;5066389;28;20033;-71
2023/08/06 05:44:46;;;;;;;3.10;1.38;;;15.00;99.90;;;;;;5066993;28;20021;-70
2023/08/06 05:47:12;;;;;;;0.65;0.65;;;15.00;99.90;;;;;;5059058;28;20110;-70
2023/08/06 05:49:37;;;;;;;1.83;1.23;;;15.00;99.90;;;;;;5071035;28;20767;-70
2023/08/06 05:52:06;;;;;;;0.95;0.88;;;15.00;99.90;;;;;;5060851;28;20050;-71
2023/08/06 05:54:31;;;;;;;1.33;0.73;;;15.10;99.90;;;;;;5064515;28;20040;-70
2023/08/06 05:56:57;;;;;;;0.52;0.52;;;15.10;99.90;;;;;;5068593;28;20460;-70
2023/08/06 05:59:22;;;;;;;3.20;1.15;;;15.10;99.90;;;;;;5058089;28;20107;-72
2023/08/06 06:01:48;;;;;;;0.90;0.68;;;15.10;99.90;;;;;;5070488;28;20365;-69
2023/08/06 06:04:14;;;;;;;1.23;1.13;;;15.10;99.90;;;;;;5061066;28;20021;-71
2023/08/06 06:06:41;;;;;;;0.47;0.47;;;15.20;99.90;;;;;;5062989;28;20081;-71
2023/08/06 06:09:07;;;;;;;1.80;1.10;;;15.20;99.90;;;;;;5069282;28;20040;-70
2023/08/06 06:11:32;;;;;;;0.47;0.47;;;15.20;99.90;;;;;;5056449;28;20064;-69
2023/08/06 06:13:58;;;;;;;2.88;1.20;;;15.30;99.90;;;;;;5068620;28;20450;-69
2023/08/06 06:16:23;;;;;;;1.55;1.30;;;15.30;99.90;;;;;;5063238;28;20028;-71
2023/08/06 06:18:49;;;;;;;2.05;0.98;;;15.30;99.90;;;;;;5061706;28;20028;-70
2023/08/06 06:21:14;;;;;;;3.58;1.45;;;15.30;99.90;;;;;;5070248;28;20025;-70
2023/08/06 06:23:40;;;;;;;0.82;0.82;;;15.30;99.90;;;;;;5057127;28;20029;-69
2023/08/06 06:26:05;;;;;;;0.73;0.73;;;15.40;99.90;;;;;;5067673;28;20020;-71
2023/08/06 06:28:31;;;;;;;0.88;0.88;;;15.40;99.90;;;;;;5064093;28;20106;-70
2023/08/06 06:31:01;;;;;;;1.10;1.10;;;15.40;99.90;;;;;;5060149;28;20144;-71
2023/08/06 06:33:26;;;;;;;0.43;0.40;;;15.50;99.90;;;;;;5069950;28;20052;-70
2023/08/06 06:35:52;;;;;;;1.85;0.60;;;15.50;99.90;;;;;;5058584;28;20031;-70
2023/08/06 06:38:18;;;;;;;1.83;1.13;;;15.60;99.90;;;;;;5065477;28;20032;-70
2023/08/06 06:40:43;;;;;;;1.60;1.20;;;15.60;99.90;;;;;;5065577;28;20469;-70
2023/08/06 06:43:09;;;;;;;2.20;1.00;;;15.60;99.90;;;;;;5058293;28;20400;-70
2023/08/06 06:45:34;;;;;;;2.90;1.80;;;15.60;99.90;;;;;;5070039;28;20036;-70
2023/08/06 06:48:00;;;;;;;0.82;0.82;;;15.60;99.90;;;;;;5059302;28;20029;-70
2023/08/06 06:50:26;;;;;;;2.15;1.20;;;15.60;99.90;;;;;;5064503;28;20039;-69
2023/08/06 06:52:51;;;;;;;1.27;0.88;;;15.60;99.90;;;;;;5066189;28;20414;-70
2023/08/06 06:55:17;;;;;;;1.92;1.10;;;15.60;99.90;;;;;;5057452;28;20035;-70
2023/08/06 06:57:42;;;;;;;1.13;1.05;;;15.60;99.90;;;;;;5069882;28;20108;-70
2023/08/06 07:00:08;;;;;;;0.85;0.85;;;15.60;99.90;;;;;;5059953;28;20400;-70
2023/08/06 07:02:34;;;;;;;1.80;1.25;;;15.50;99.90;;;;;;5062788;28;20473;-70
2023/08/06 07:04:59;;;;;;;0.88;0.55;;;15.50;99.90;;;;;;5067123;28;20029;-71
2023/08/06 07:07:25;;;;;;;1.73;1.63;;;15.50;99.90;;;;;;5056465;28;20031;-70
2023/08/06 07:09:50;;;;;;;9.07;0.75;;;15.60;99.90;;;;;;5068445;28;20029;-70
2023/08/06 07:12:16;;;;;;;0.68;0.68;;;15.50;99.90;;;;;;5061116;28;20036;-69
2023/08/06 07:14:42;;;;;;;1.23;0.88;;;15.60;99.90;;;;;;5061759;28;20024;-70
2023/08/06 07:17:07;;;;;;;3.30;1.88;;;15.60;99.90;;;;;;5068024;28;20103;-69
2023/08/06 07:19:33;;;;;;;1.55;1.45;;;15.60;99.90;;;;;;5056406;28;20384;-70
2023/08/06 07:21:58;;;;;;;2.60;0.90;;;15.60;99.90;;;;;;5067173;28;20870;-69
2023/08/06 07:24:24;;;;;;;2.22;0.77;;;15.50;99.90;;;;;;5062376;28;20456;-69
2023/08/06 07:26:49;;;;;;;2.33;1.85;;;15.50;99.90;;;;;;5061234;28;20082;-69
2023/08/06 07:29:19;;;;;;;1.48;1.38;;;15.50;99.90;;;;;;5057143;28;20377;-69
2023/08/06 07:31:45;;;;;;;0.77;0.77;;;15.50;99.90;;;;;;5039729;28;20024;-69
2023/08/06 07:34:10;;;;;;;2.38;1.40;;;15.50;99.90;;;;;;5072634;28;20029;-69
2023/08/06 07:36:36;;;;;;;0.75;0.68;;;15.50;99.90;;;;;;5061708;28;20354;-70
2023/08/06 07:39:01;;;;;;;0.80;0.70;;;15.50;99.90;;;;;;5067250;28;20570;-69
2023/08/06 07:41:27;;;;;;;0.93;0.93;;;15.50;99.90;;;;;;5055892;28;20436;-69
2023/08/06 07:43:52;;;;;;;1.48;0.88;;;15.50;99.90;;;;;;5068060;28;20105;-69
2023/08/06 07:46:18;;;;;;;0.35;0.35;;;15.50;99.90;;;;;;5060964;28;20084;-69
2023/08/06 07:48:44;;;;;;;1.55;0.57;;;15.50;99.90;;;;;;5060641;28;20072;-68
2023/08/06 07:51:10;;;;;;;0.88;0.32;;;15.60;99.90;;;;;;5068052;28;20025;-69
2023/08/06 07:53:35;;;;;;;1.30;0.63;;;15.60;99.90;;;;;;5055758;28;20078;-68
2023/08/06 07:56:02;;;;;;;2.17;0.93;;;15.60;99.90;;;;;;5066812;28;20033;-68
2023/08/06 07:58:29;;;;;;;0.52;0.52;;;15.70;99.90;;;;;;5062005;28;20158;-68
2023/08/06 08:00:55;;;;;;;1.15;0.45;;;15.70;99.90;;;;;;5058571;28;20467;-68
2023/08/06 08:03:21;;;;;;;2.30;1.30;;;15.70;99.90;;;;;;5068671;28;20033;-68
2023/08/06 08:05:46;;;;;;;0.52;0.50;;;15.80;99.90;;;;;;5056162;28;20023;-68
2023/08/06 08:08:12;;;;;;;0.82;0.73;;;15.90;99.90;;;;;;5064623;28;20112;-68
2023/08/06 08:10:38;;;;;;;0.63;0.50;;;15.90;99.90;;;;;;5063186;28;20035;-68
2023/08/06 08:13:04;;;;;;;1.48;1.00;;;15.90;99.90;;;;;;5057313;28;20492;-68
2023/08/06 08:15:31;;;;;;;0.68;0.55;;;15.90;99.90;;;;;;5048661;28;20128;-67
2023/08/06 08:17:57;;;;;;;0.40;0.40;;;15.90;99.90;;;;;;5059979;28;20035;-68
2023/08/06 08:20:23;;;;;;;0.60;0.60;;;16.00;99.90;;;;;;5062611;28;20033;-68
2023/08/06 08:22:49;;;;;;;0.35;0.35;;;16.00;99.90;;;;;;5064552;28;20071;-67
2023/08/06 08:25:15;;;;;;;1.67;0.75;;;16.00;99.90;;;;;;5055823;28;20065;-68
2023/08/06 08:27:41;;;;;;;0.25;0.20;;;16.10;99.90;;;;;;5068615;28;20055;-67
2023/08/06 08:30:07;;;;;;;0.47;0.47;;;16.30;99.90;;;;;;5062869;28;20532;-67
2023/08/06 08:32:33;;;;;;;0.30;0.30;;;16.40;99.90;;;;;;5065368;28;20061;-68
2023/08/06 08:34:58;;;;;;;0.25;0.25;;;16.50;99.90;;;;;;5069401;28;20060;-68
2023/08/06 08:37:24;;;;;;;0.25;0.25;;;16.60;99.90;;;;;;5059176;28;20390;-67
2023/08/06 08:39:50;;;;;;;0.10;0.10;;;16.80;99.90;;;;;;5071303;28;20039;-68
2023/08/06 08:42:16;;;;;;;0.30;0.30;;;17.10;99.90;;;;;;5064198;28;20064;-67
2023/08/06 08:44:43;;;;;;;0.32;0.25;;;17.30;99.90;;;;;;5064496;28;20100;-68
2023/08/06 08:47:10;;;;;;;0.47;0.35;;;17.50;99.90;;;;;;5070798;28;20053;-67
2023/08/06 08:49:37;;;;;;;1.13;0.32;;;17.70;99.90;;;;;;5058819;28;20442;-68
2023/08/06 08:52:06;;;;;;;0.65;0.65;;;17.90;99.90;;;;;;5069454;28;20073;-68
2023/08/06 08:54:33;;;;;;;3.30;1.42;;;18.10;99.90;;;;;;5065886;28;20013;-66
2023/08/06 08:56:59;;;;;;;5.60;2.17;;;18.20;99.90;;;;;;5061490;28;20483;-68
2023/08/06 08:59:25;;;;;;;5.82;1.85;;;18.20;99.90;;;;;;5065541;28;20029;-69
2023/08/06 09:01:51;;;;;;;4.35;1.05;;;18.30;99.90;;;;;;5059460;28;20036;-68
2023/08/06 09:04:18;;;;;;;4.40;2.15;;;18.30;99.90;;;;;;5066702;28;20064;-66
2023/08/06 09:06:50;;;;;;;3.38;1.70;;;18.30;99.90;;;;;;5067409;28;20036;-66
2023/08/06 09:09:33;;;;;;;4.18;1.52;;;18.30;99.90;;;;;;5059341;28;20023;-66
2023/08/06 09:12:04;;;;;;;4.13;1.48;;;18.50;99.90;;;;;;5046612;28;20029;-67
2023/08/06 09:14:30;;;;;;;2.70;1.27;;;18.70;99.90;;;;;;5065271;28;20111;-67
2023/08/06 09:16:57;;;;;;;7.15;1.63;;;18.80;99.90;;;;;;5052943;28;20508;-67
2023/08/06 09:19:22;;;;;;;3.28;1.17;;;18.90;99.90;;;;;;5058181;28;20029;-67
2023/08/06 09:21:51;;;;;;;4.13;1.70;;;19.10;99.90;;;;;;5069671;28;20044;-67
2023/08/06 09:24:17;;;;;;;3.97;1.50;;;19.10;99.90;;;;;;5062644;28;20035;-67
2023/08/06 09:26:44;;;;;;;5.05;1.67;;;19.30;99.90;;;;;;5063348;28;20021;-67
2023/08/06 09:29:14;;;;;;;5.72;1.65;;;19.30;99.90;;;;;;5069555;28;20032;-67
2023/08/06 09:31:48;;;;;;;4.07;1.40;;;19.30;99.90;;;;;;5058161;28;20091;-67
2023/08/06 09:34:18;;;;;;;5.05;1.67;;;19.20;99.90;;;;;;5067082;28;20428;-67
2023/08/06 09:36:56;;;;;;;6.93;1.52;;;19.20;99.90;;;;;;5066936;28;20029;-67
2023/08/06 09:39:28;;;;;;;6.25;2.88;;;19.10;99.90;;;;;;5056961;28;20381;-67
2023/08/06 09:42:01;;;;;;;7.05;3.75;;;19.20;99.90;;;;;;5070406;28;20025;-67
2023/08/06 09:44:28;;;;;;;6.30;2.63;;;19.40;99.90;;;;;;5063784;28;20586;-67
2023/08/06 09:46:55;;;;;;;7.90;2.13;;;19.70;99.90;;;;;;5061266;28;20524;-67
2023/08/06 09:49:26;;;;;;;10.80;4.57;;;19.90;99.90;;;;;;5070473;28;20774;-67
2023/08/06 09:51:55;;;;;;;6.70;3.13;;;20.10;99.90;;;;;;5058997;28;20040;-67
2023/08/06 09:54:23;;;;;;;6.82;3.08;;;20.30;99.90;;;;;;5065752;28;20040;-66
2023/08/06 09:56:48;;;;;;;10.68;2.65;;;20.40;99.90;;;;;;5066954;28;20024;-67
2023/08/06 09:59:15;;;;;;;5.38;2.17;;;20.40;99.90;;;;;;5058318;28;20112;-67
2023/08/06 10:01:41;;;;;;;5.38;1.80;;;20.30;99.90;;;;;;5070651;28;20532;-67
2023/08/06 10:04:08;;;;;;;7.68;3.33;;;20.20;99.90;;;;;;5061383;28;20115;-67
2023/08/06 10:06:38;;;;;;;9.40;2.75;;;20.10;99.90;;;;;;5063182;28;20025;-67
2023/08/06 10:09:07;;;;;;;7.00;2.60;;;19.90;99.90;;;;;;5053262;28;20029;-66
2023/08/06 10:11:33;;;;;;;3.90;2.08;;;19.60;99.90;;;;;;5056577;28;20046;-66
2023/08/06 10:14:09;;;;;;;6.95;2.05;;;19.30;99.90;;;;;;5053608;28;20116;-66
2023/08/06 10:16:36;;;;;;;5.68;2.50;;;19.10;99.90;;;;;;5053431;28;20021;-67
2023/08/06 10:19:04;;;;;;;3.42;1.60;;;19.10;99.90;;;;;;5053821;28;20020;-66
2023/08/06 10:21:31;;;;;;;7.03;1.50;;;19.10;99.90;;;;;;5053895;28;20108;-66
2023/08/06 10:23:57;;;;;;;3.33;1.70;;;19.20;99.90;;;;;;5041566;28;20128;-67
2023/08/06 10:26:30;;;;;;;10.38;3.53;;;19.30;99.90;;;;;;5053575;28;20117;-66
2023/08/06 10:28:56;;;;;;;9.07;4.05;;;19.40;99.90;;;;;;5034145;28;20029;-66
2023/08/06 10:31:54;;;;;;;6.75;3.50;;;19.60;99.90;;;;;;5037528;28;20071;-66
2023/08/06 10:34:20;;;;;;;8.30;3.80;;;19.80;99.90;;;;;;5053869;28;20040;-68
2023/08/06 10:36:45;;;;;;;9.45;3.80;;;19.90;99.90;;;;;;5054079;28;20025;-67
2023/08/06 10:39:14;;;;;;;9.88;3.50;;;19.90;99.90;;;;;;5053816;28;20033;-68
2023/08/06 10:41:42;;;;;;;8.60;4.00;;;20.00;99.90;;;;;;5053782;28;20044;-67
2023/08/06 10:44:09;;;;;;;8.88;3.58;;;20.00;99.90;;;;;;5053603;28;20037;-67
2023/08/06 10:46:36;;;;;;;3.50;1.98;;;20.00;99.90;;;;;;5053407;28;20392;-67
2023/08/06 10:49:03;;;;;;;3.15;1.92;;;20.00;99.90;;;;;;5053214;28;20075;-68
2023/08/06 10:51:28;;;;;;;5.68;2.58;;;20.10;99.90;;;;;;5052498;28;20461;-67
2023/08/06 10:53:54;;;;;;;9.95;3.58;;;20.00;99.90;;;;;;5053489;28;20071;-67
2023/08/06 10:56:22;;;;;;;8.93;3.13;;;20.00;99.90;;;;;;5053554;28;20104;-67
2023/08/06 10:58:48;;;;;;;7.47;3.45;;;20.10;99.90;;;;;;5053045;28;20037;-67
2023/08/06 11:01:14;;;;;;;6.82;2.72;;;20.10;99.90;;;;;;5053191;28;20478;-67
2023/08/06 11:03:41;;;;;;;8.45;2.83;;;20.00;99.90;;;;;;5053487;28;20040;-67
2023/08/06 11:06:07;;;;;;;5.93;2.17;;;20.00;99.90;;;;;;5049853;28;20115;-68
2023/08/06 11:08:35;;;;;;;3.50;1.90;;;19.90;99.90;;;;;;5052936;28;20033;-68
2023/08/06 11:11:12;;;;;;;7.45;2.05;;;19.70;99.90;;;;;;5051432;28;20017;-68
2023/08/06 11:13:46;;;;;;;8.45;3.95;;;19.60;99.90;;;;;;5051781;28;20040;-67
2023/08/06 11:16:17;;;;;;;6.35;2.85;;;19.50;99.90;;;;;;5052980;28;20021;-66
2023/08/06 11:18:42;;;;;;;7.43;3.40;;;19.50;99.90;;;;;;5057372;28;20110;-67
2023/08/06 11:21:09;;;;;;;7.75;2.58;;;19.50;99.90;;;;;;5058916;28;20067;-67
2023/08/06 11:23:35;;;;;;;7.63;3.20;;;19.50;99.90;;;;;;5053026;28;20024;-66
2023/08/06 11:26:01;;;;;;;6.80;2.42;;;19.60;99.90;;;;;;5051197;28;20025;-66
2023/08/06 11:28:27;;;;;;;7.38;2.70;;;19.60;99.90;;;;;;5045615;28;20028;-67
2023/08/06 11:30:53;;;;;;;10.27;3.17;;;19.70;99.90;;;;;;5052755;28;20484;-67
2023/08/06 11:33:25;;;;;;;4.90;2.00;;;19.70;99.90;;;;;;5052931;28;20052;-67
2023/08/06 11:35:52;;;;;;;4.43;1.40;;;19.70;99.90;;;;;;5053108;28;20052;-67
2023/08/06 11:38:18;;;;;;;2.83;1.60;;;19.70;99.90;;;;;;5051468;28;20080;-68
2023/08/06 11:40:50;;;;;;;5.30;2.20;;;19.70;99.90;;;;;;5069636;28;20439;-67
2023/08/06 11:43:19;;;;;;;5.47;1.75;;;19.60;99.90;;;;;;5052772;28;20040;-68
2023/08/06 11:45:44;;;;;;;4.82;2.58;;;19.50;99.90;;;;;;5060860;28;20487;-67
2023/08/06 11:48:10;;;;;;;5.55;1.88;;;19.40;99.90;;;;;;5072943;28;20036;-67
2023/08/06 11:50:39;;;;;;;4.70;1.70;;;19.30;99.90;;;;;;5032753;28;20446;-67
2023/08/06 11:53:05;;;;;;;5.20;2.35;;;19.30;99.90;;;;;;5032535;28;20079;-66
2023/08/06 11:55:31;;;;;;;8.48;2.42;;;19.50;99.90;;;;;;5071136;28;20140;-67
2023/08/06 11:57:57;;;;;;;4.25;2.35;;;19.60;99.90;;;;;;5071932;28;20040;-67
2023/08/06 12:00:24;;;;;;;4.75;1.67;;;19.80;99.90;;;;;;5065746;28;20431;-66
2023/08/06 12:02:52;;;;;;;3.95;1.85;;;19.80;99.90;;;;;;5051222;28;20013;-66
2023/08/06 12:05:25;;;;;;;5.30;1.60;;;19.90;99.90;;;;;;5050814;28;20013;-66
2023/08/06 12:07:52;;;;;;;4.72;1.73;;;20.00;99.90;;;;;;5051483;28;20037;-66
2023/08/06 12:10:20;;;;;;;5.35;1.77;;;20.00;99.90;;;;;;5052901;28;20640;-65
2023/08/06 12:12:46;;;;;;;3.17;1.73;;;20.20;99.90;;;;;;5072598;28;20113;-66
2023/08/06 12:15:11;;;;;;;4.75;1.25;;;20.30;99.90;;;;;;5072546;28;20469;-65
2023/08/06 12:17:38;;;;;;;2.75;1.15;;;20.40;99.90;;;;;;5072077;28;20029;-66
2023/08/06 12:20:05;;;;;;;4.68;1.00;;;20.50;99.90;;;;;;5071511;28;20033;-66
2023/08/06 12:22:38;;;;;;;4.00;1.40;;;20.40;99.90;;;;;;5071813;28;20062;-66
2023/08/06 12:25:08;;;;;;;4.75;1.90;;;20.40;99.90;;;;;;5072365;28;20085;-66
2023/08/06 12:27:35;;;;;;;3.05;1.40;;;20.40;99.90;;;;;;5072059;28;20063;-66
2023/08/06 12:30:01;;;;;;;6.45;2.00;;;20.40;99.90;;;;;;5072112;28;20048;-66
2023/08/06 12:32:26;;;;;;;4.15;1.20;;;20.60;99.90;;;;;;5071838;28;20472;-66
2023/08/06 12:34:52;;;;;;;4.85;1.85;;;20.70;99.90;;;;;;5067376;28;20033;-67
2023/08/06 12:37:18;;;;;;;4.22;1.98;;;20.80;99.90;;;;;;5052173;28;20029;-66
2023/08/06 12:39:43;;;;;;;5.30;1.63;;;20.90;99.90;;;;;;5052421;28;20063;-68
2023/08/06 12:42:10;;;;;;;3.65;1.65;;;20.90;99.90;;;;;;5051392;28;20382;-66
2023/08/06 12:44:36;;;;;;;2.78;1.42;;;20.90;99.90;;;;;;5053952;28;20033;-68